Rohrs, Nebraska
Current Conditions -  °F | °C
As of 10:15 PM on Wednesday 22 Oct 2014 (Local Time) from KAFK Reporting Station
Moderate Rain Moderate Rain  
Wind Chill: 62°   Ceiling: 2100
Heat Index: 62°   Visibility: 5mi
Dew Point: 61°   Wind: 0mph
Humidity: 97%   Direction: NA
Pressure: 30.08"   Gusts: NA
Location:  40.3314°N, 95.8994°W
Report Text: KAFK 230315Z AUTO 00000KT 5SM RA BKN021 BKN026 OVC043 17/16 A3008 RMK AO2 P0006 T01650161
Loading
Personal Weather Stations






























Interactive Weather Map
Tropical Storm Tracking
New forecast layout! Learn more

10-Day Weather Forecast

Advertisements
Track Severe Weather on mobile